Time;durP1;ratioP1;P1;durP2;ratioP2;P2;SDS_P1;SDS_P2;PMS_P1;PMS_P2;Temp;Humidity;BMP_temperature;BMP_pressure;BME280_temperature;BME280_humidity;BME280_pressure;Samples;Min_cycle;Max_cycle;Signal;HPM_P1;HPM_P2
2023/10/19 00:00:19;;;;;;;10.05;5.18;;;17.30;99.90;;;;;;4989607;28;20557;-69
2023/10/19 00:02:51;;;;;;;10.18;4.95;;;17.20;99.90;;;;;;4986240;28;20118;-69
2023/10/19 00:05:17;;;;;;;10.40;5.10;;;17.20;99.90;;;;;;4989919;28;20034;-69
2023/10/19 00:07:43;;;;;;;10.68;5.45;;;17.20;99.90;;;;;;5020694;28;20498;-70
2023/10/19 00:10:09;;;;;;;11.90;5.40;;;17.20;99.90;;;;;;4989539;28;20046;-69
2023/10/19 00:12:36;;;;;;;13.18;5.28;;;17.20;99.90;;;;;;4989659;28;20434;-69
2023/10/19 00:15:03;;;;;;;12.43;4.80;;;17.20;99.90;;;;;;4989425;28;20548;-69
2023/10/19 00:17:32;;;;;;;11.90;5.13;;;17.20;99.90;;;;;;4988469;28;20030;-69
2023/10/19 00:20:00;;;;;;;13.75;5.93;;;17.20;99.90;;;;;;4989900;28;20034;-69
2023/10/19 00:22:26;;;;;;;10.73;4.95;;;17.30;99.90;;;;;;4988646;28;20066;-69
2023/10/19 00:24:51;;;;;;;7.37;3.43;;;17.20;99.90;;;;;;4987896;28;20708;-69
2023/10/19 00:27:19;;;;;;;6.17;3.87;;;17.20;99.90;;;;;;4988518;28;20048;-68
2023/10/19 00:29:55;;;;;;;7.95;5.15;;;17.10;99.90;;;;;;4988940;28;20450;-70
2023/10/19 00:32:24;;;;;;;9.13;4.35;;;17.20;99.90;;;;;;4989336;28;20031;-69
2023/10/19 00:34:51;;;;;;;8.98;3.55;;;17.30;99.90;;;;;;4988730;28;20058;-70
2023/10/19 00:37:20;;;;;;;8.23;3.33;;;17.20;99.90;;;;;;4989091;28;20070;-70
2023/10/19 00:39:55;;;;;;;3.85;1.33;;;17.30;99.90;;;;;;4989540;28;20057;-69
2023/10/19 00:42:25;;;;;;;4.18;1.92;;;17.40;99.90;;;;;;4988534;28;20121;-69
2023/10/19 00:44:51;;;;;;;2.95;1.55;;;17.40;99.90;;;;;;4988738;28;20566;-70
2023/10/19 00:47:23;;;;;;;4.33;1.00;;;17.40;99.90;;;;;;4987882;28;20120;-69
2023/10/19 00:49:49;;;;;;;5.60;1.20;;;17.40;99.90;;;;;;4988476;28;20061;-70
2023/10/19 00:52:24;;;;;;;6.27;1.10;;;17.40;99.90;;;;;;4989132;28;20058;-70
2023/10/19 00:57:20;;;;;;;;;;;17.30;99.90;;;;;;4989457;28;20080;-69
2023/10/19 00:59:54;;;;;;;2.00;0.98;;;17.30;99.90;;;;;;4988451;28;19916;-70
2023/10/19 01:02:21;;;;;;;3.35;0.90;;;17.30;99.90;;;;;;4987745;28;20733;-70
2023/10/19 01:04:55;;;;;;;5.45;0.90;;;17.30;99.90;;;;;;4987431;28;20041;-70
2023/10/19 01:07:27;;;;;;;2.45;0.70;;;17.30;99.90;;;;;;4988405;28;20041;-69
2023/10/19 01:09:56;;;;;;;3.42;0.90;;;17.40;99.90;;;;;;4988277;28;20038;-70
2023/10/19 01:12:44;;;;;;;3.05;0.75;;;17.30;99.90;;;;;;4987982;28;20057;-70
2023/10/19 01:15:13;;;;;;;;;;;17.30;99.90;;;;;;4986037;28;20049;-70
2023/10/19 01:17:40;;;;;;;1.40;0.80;;;17.30;99.90;;;;;;4988125;28;19909;-70
2023/10/19 01:20:22;;;;;;;2.58;0.95;;;17.30;99.90;;;;;;4987860;28;20045;-70
2023/10/19 01:25:44;;;;;;;7.68;1.92;;;16.90;99.90;;;;;;4988678;28;20333;-70
2023/10/19 01:28:10;;;;;;;1.88;0.77;;;16.90;99.90;;;;;;4988575;28;20145;-70
2023/10/19 01:30:37;;;;;;;9.50;1.42;;;17.00;99.90;;;;;;4987643;28;20191;-70
2023/10/19 01:33:04;;;;;;;3.20;1.15;;;17.00;99.90;;;;;;4987695;28;20042;-69
2023/10/19 01:38:15;;;;;;;2.38;0.90;;;17.00;99.90;;;;;;4987832;28;20085;-70
2023/10/19 01:40:46;;;;;;;1.83;0.88;;;16.90;99.90;;;;;;4987457;28;20030;-70
2023/10/19 01:43:20;;;;;;;2.60;0.85;;;16.90;99.90;;;;;;4987666;28;20553;-70
2023/10/19 01:45:46;;;;;;;6.03;1.50;;;16.90;99.90;;;;;;4988365;28;20529;-70
2023/10/19 01:48:13;;;;;;;1.33;0.80;;;16.90;99.90;;;;;;4987954;28;20034;-69
2023/10/19 01:50:39;;;;;;;1.67;1.10;;;16.90;99.90;;;;;;4987900;28;20042;-70
2023/10/19 01:53:15;;;;;;;1.40;0.95;;;16.80;99.90;;;;;;4987272;28;20033;-70
2023/10/19 01:55:57;;;;;;;1.30;0.73;;;16.90;99.90;;;;;;4988381;28;20042;-69
2023/10/19 01:58:24;;;;;;;1.58;0.80;;;17.00;99.90;;;;;;4986934;28;20534;-70
2023/10/19 02:00:54;;;;;;;2.50;0.80;;;17.00;99.90;;;;;;4985826;28;20034;-70
2023/10/19 02:03:21;;;;;;;5.20;1.02;;;16.90;99.90;;;;;;4987161;28;20022;-70
2023/10/19 02:05:49;;;;;;;4.18;0.77;;;16.90;99.90;;;;;;4987337;28;20046;-69
2023/10/19 02:08:17;;;;;;;1.17;1.08;;;16.90;99.90;;;;;;4987519;28;20133;-70
2023/10/19 02:10:47;;;;;;;5.22;1.00;;;16.90;99.90;;;;;;4983211;28;20073;-70
2023/10/19 02:13:15;;;;;;;2.90;1.23;;;16.90;99.90;;;;;;4987544;28;20113;-69
2023/10/19 02:15:43;;;;;;;2.40;1.48;;;16.90;99.90;;;;;;4987161;28;20081;-70
2023/10/19 02:18:08;;;;;;;7.95;1.52;;;17.00;99.90;;;;;;4984814;28;20421;-70
2023/10/19 02:20:34;;;;;;;2.80;1.47;;;16.90;99.90;;;;;;4987131;28;20037;-70
2023/10/19 02:23:03;;;;;;;1.23;0.97;;;16.90;99.90;;;;;;4984101;28;20376;-70
2023/10/19 02:25:36;;;;;;;2.00;0.95;;;16.90;99.90;;;;;;4987002;28;20781;-70
2023/10/19 02:28:02;;;;;;;4.32;1.10;;;16.90;99.90;;;;;;4988307;28;20433;-70
2023/10/19 02:30:28;;;;;;;;;;;16.90;99.90;;;;;;4991011;28;20034;-70
2023/10/19 02:32:53;;;;;;;1.83;0.90;;;16.90;99.90;;;;;;4987013;28;19913;-70
2023/10/19 02:35:19;;;;;;;2.73;1.07;;;16.90;99.90;;;;;;4986640;28;20046;-70
2023/10/19 02:37:45;;;;;;;3.20;0.90;;;16.90;99.90;;;;;;4987161;28;20046;-70
2023/10/19 02:40:21;;;;;;;1.97;1.10;;;17.00;99.90;;;;;;4979823;28;20046;-69
2023/10/19 02:42:47;;;;;;;3.65;1.08;;;17.00;99.90;;;;;;4981781;28;20056;-70
2023/10/19 02:45:15;;;;;;;7.00;1.15;;;17.00;99.90;;;;;;4983440;28;21725;-69
2023/10/19 02:47:44;;;;;;;4.68;1.23;;;17.10;99.90;;;;;;4984832;28;20621;-70
2023/10/19 02:50:22;;;;;;;2.20;1.10;;;17.10;99.90;;;;;;4988519;28;20537;-70
2023/10/19 02:52:49;;;;;;;2.08;1.40;;;17.20;99.90;;;;;;4992213;28;20058;-70
2023/10/19 02:55:17;;;;;;;1.38;1.02;;;17.20;99.90;;;;;;4991260;28;20509;-70
2023/10/19 02:57:46;;;;;;;1.58;0.93;;;17.20;99.90;;;;;;4991758;28;20542;-70
2023/10/19 03:00:19;;;;;;;2.60;1.02;;;17.20;99.90;;;;;;4991894;28;20038;-70
2023/10/19 03:02:45;;;;;;;2.22;1.30;;;17.20;99.90;;;;;;4990548;28;20091;-70
2023/10/19 03:05:14;;;;;;;2.08;0.90;;;17.20;99.90;;;;;;4990713;28;20565;-70
2023/10/19 03:07:43;;;;;;;4.55;1.35;;;17.10;99.90;;;;;;4986973;28;20042;-70
2023/10/19 03:10:23;;;;;;;5.63;1.70;;;17.20;99.90;;;;;;4991372;28;20371;-70
2023/10/19 03:12:50;;;;;;;4.70;2.00;;;17.20;99.90;;;;;;4992165;28;20062;-69
2023/10/19 03:15:20;;;;;;;8.30;2.20;;;17.20;99.90;;;;;;4991064;28;20037;-69
2023/10/19 03:17:46;;;;;;;4.93;1.52;;;17.20;99.90;;;;;;4991629;28;20030;-70
2023/10/19 03:20:12;;;;;;;2.58;1.73;;;17.20;99.90;;;;;;4991015;28;20510;-70
2023/10/19 03:22:38;;;;;;;4.50;1.87;;;17.20;99.90;;;;;;4991325;28;20069;-70
2023/10/19 03:27:51;;;;;;;5.40;3.28;;;17.20;99.90;;;;;;4988840;28;20120;-69
2023/10/19 03:30:22;;;;;;;7.55;4.68;;;17.10;99.90;;;;;;4991006;28;20046;-71
2023/10/19 03:32:48;;;;;;;9.55;5.55;;;17.00;99.90;;;;;;5022767;28;20038;-71
2023/10/19 03:35:15;;;;;;;;;;;16.90;99.90;;;;;;4997704;28;20112;-70
2023/10/19 03:37:41;;;;;;;11.07;6.13;;;16.90;99.90;;;;;;4991931;28;19949;-70
2023/10/19 03:40:10;;;;;;;13.00;6.97;;;16.90;99.90;;;;;;4985723;28;20035;-70
2023/10/19 03:42:40;;;;;;;14.38;6.20;;;16.90;99.90;;;;;;4991891;28;20065;-70
2023/10/19 03:45:12;;;;;;;13.75;7.03;;;16.80;99.90;;;;;;4990946;28;20592;-71
2023/10/19 03:47:39;;;;;;;10.00;6.43;;;16.80;99.90;;;;;;4988534;28;20037;-69
2023/10/19 03:50:12;;;;;;;14.20;6.80;;;16.80;99.90;;;;;;4991477;28;20030;-69
2023/10/19 03:52:38;;;;;;;15.85;6.95;;;16.90;99.90;;;;;;4990838;28;20036;-70
2023/10/19 03:55:13;;;;;;;16.25;7.93;;;16.90;99.90;;;;;;5023031;28;20034;-70
2023/10/19 03:57:46;;;;;;;14.00;7.15;;;16.80;99.90;;;;;;4990197;28;20037;-69
2023/10/19 04:00:18;;;;;;;14.50;6.68;;;16.80;99.90;;;;;;4986953;28;20085;-70
2023/10/19 04:02:44;;;;;;;14.18;7.53;;;16.80;99.90;;;;;;4983525;28;20030;-70
2023/10/19 04:05:20;;;;;;;13.37;7.50;;;16.80;99.90;;;;;;4987016;28;20030;-71
2023/10/19 04:07:49;;;;;;;15.00;7.47;;;16.70;99.90;;;;;;4986471;28;20410;-70
2023/10/19 04:10:38;;;;;;;18.15;7.72;;;16.80;99.90;;;;;;4987642;28;20030;-71
2023/10/19 04:13:09;;;;;;;17.38;6.90;;;16.80;99.90;;;;;;4987407;28;20545;-70
2023/10/19 04:15:35;;;;;;;17.77;7.50;;;16.80;99.90;;;;;;4988358;28;20066;-70
2023/10/19 04:18:02;;;;;;;19.88;7.30;;;16.80;99.90;;;;;;4987700;28;20034;-70
2023/10/19 04:20:42;;;;;;;;;;;16.80;99.90;;;;;;4985981;28;20034;-71
2023/10/19 04:23:11;;;;;;;13.30;6.68;;;16.80;99.90;;;;;;4987879;28;20386;-70
2023/10/19 04:25:37;;;;;;;17.50;7.70;;;16.70;99.90;;;;;;4988044;28;20034;-71
2023/10/19 04:28:03;;;;;;;12.93;7.20;;;16.70;99.90;;;;;;5019320;28;20030;-70
2023/10/19 04:30:29;;;;;;;16.52;7.30;;;16.70;99.90;;;;;;4986608;28;20557;-70
2023/10/19 04:32:58;;;;;;;16.48;7.47;;;16.70;99.90;;;;;;4987846;28;20038;-69
2023/10/19 04:35:24;;;;;;;12.85;7.80;;;16.70;99.90;;;;;;4987065;28;20046;-70
2023/10/19 04:37:53;;;;;;;11.57;6.82;;;16.70;99.90;;;;;;4987904;28;20053;-71
2023/10/19 04:40:20;;;;;;;11.27;7.07;;;16.70;99.90;;;;;;4987403;28;20042;-69
2023/10/19 04:42:46;;;;;;;15.80;7.47;;;16.70;99.90;;;;;;4987723;28;20054;-70
2023/10/19 04:45:13;;;;;;;;;;;16.70;99.90;;;;;;4987807;28;20030;-69
2023/10/19 04:47:39;;;;;;;14.27;6.93;;;16.70;99.90;;;;;;4987065;28;19964;-70
2023/10/19 04:50:06;;;;;;;15.80;7.78;;;16.70;99.90;;;;;;4987788;28;20030;-70
2023/10/19 04:52:32;;;;;;;15.48;8.85;;;16.60;99.90;;;;;;4987265;28;20059;-69
2023/10/19 04:54:59;;;;;;;16.58;8.32;;;16.60;99.90;;;;;;4987692;28;20066;-69
2023/10/19 04:57:25;;;;;;;19.90;9.13;;;16.60;99.90;;;;;;4985976;28;20083;-69
2023/10/19 04:59:51;;;;;;;18.73;9.27;;;16.70;99.90;;;;;;5017856;28;20049;-70
2023/10/19 05:02:17;;;;;;;17.60;9.68;;;16.70;99.90;;;;;;4987686;28;20399;-70
2023/10/19 05:04:45;;;;;;;17.90;8.83;;;16.70;99.90;;;;;;4986989;28;20694;-69
2023/10/19 05:07:16;;;;;;;16.88;8.82;;;16.80;99.90;;;;;;4986194;28;20058;-70
2023/10/19 05:09:42;;;;;;;15.75;9.00;;;16.80;99.90;;;;;;4986728;28;20461;-70
2023/10/19 05:12:09;;;;;;;17.60;8.63;;;16.90;99.90;;;;;;4986452;28;20092;-70
2023/10/19 05:14:42;;;;;;;18.52;7.80;;;16.90;99.90;;;;;;4986729;28;20081;-69
2023/10/19 05:17:09;;;;;;;15.43;8.27;;;16.90;99.90;;;;;;4984440;28;20035;-70
2023/10/19 05:19:36;;;;;;;15.45;8.02;;;16.80;99.90;;;;;;4986041;28;20114;-69
2023/10/19 05:22:02;;;;;;;17.27;7.68;;;16.80;99.90;;;;;;4986004;28;20161;-69
2023/10/19 05:24:29;;;;;;;11.45;6.95;;;16.80;99.90;;;;;;4985725;28;20034;-70
2023/10/19 05:26:56;;;;;;;13.15;6.78;;;16.80;99.90;;;;;;4986248;28;20038;-70
2023/10/19 05:29:23;;;;;;;98.13;8.48;;;16.80;99.90;;;;;;4985806;28;20185;-70
2023/10/19 05:31:53;;;;;;;14.80;6.05;;;16.80;99.90;;;;;;4987225;28;20062;-69
2023/10/19 05:34:23;;;;;;;14.48;6.03;;;16.80;99.90;;;;;;4986258;28;20030;-69
2023/10/19 05:36:49;;;;;;;9.00;5.38;;;16.80;99.90;;;;;;5017752;28;20038;-69
2023/10/19 05:39:18;;;;;;;9.75;6.07;;;16.80;99.90;;;;;;4986776;28;20038;-69
2023/10/19 05:41:43;;;;;;;14.43;5.50;;;16.70;99.90;;;;;;4985814;28;20042;-69
2023/10/19 05:44:09;;;;;;;14.70;6.25;;;16.80;99.90;;;;;;4985316;28;20030;-69
2023/10/19 05:46:35;;;;;;;16.60;8.90;;;16.70;99.90;;;;;;4987692;28;20049;-68
2023/10/19 05:49:03;;;;;;;19.35;9.43;;;16.70;99.90;;;;;;4988076;28;20277;-69
2023/10/19 05:51:32;;;;;;;17.35;8.60;;;16.70;99.90;;;;;;4985842;28;20104;-68
2023/10/19 05:54:04;;;;;;;17.35;7.43;;;16.60;99.90;;;;;;4983859;28;20042;-71
2023/10/19 05:56:36;;;;;;;16.52;9.20;;;16.60;99.90;;;;;;4983970;28;20228;-68
2023/10/19 05:59:02;;;;;;;15.75;8.23;;;16.60;99.90;;;;;;4985943;28;20030;-67
2023/10/19 06:01:28;;;;;;;14.18;8.40;;;16.70;99.90;;;;;;4984212;28;20406;-68
2023/10/19 06:03:54;;;;;;;12.63;8.20;;;16.70;99.90;;;;;;4977079;28;20042;-68
2023/10/19 06:06:20;;;;;;;11.90;7.80;;;16.70;99.90;;;;;;4986558;28;20134;-67
2023/10/19 06:08:46;;;;;;;;;;;16.70;99.90;;;;;;4986547;28;20573;-68
2023/10/19 06:11:12;;;;;;;14.82;7.13;;;16.70;99.90;;;;;;4985480;28;20000;-69
2023/10/19 06:13:38;;;;;;;11.27;7.47;;;16.70;99.90;;;;;;4985925;28;20077;-67
2023/10/19 06:16:04;;;;;;;10.00;7.20;;;16.70;99.90;;;;;;4983931;28;20073;-68
2023/10/19 06:18:29;;;;;;;14.45;7.65;;;16.70;99.90;;;;;;4984496;28;20810;-67
2023/10/19 06:20:55;;;;;;;14.73;7.27;;;16.80;99.90;;;;;;4983479;28;20042;-68
2023/10/19 06:23:21;;;;;;;10.60;6.80;;;16.90;99.90;;;;;;4983912;28;20040;-68
2023/10/19 06:25:47;;;;;;;11.70;6.22;;;16.90;99.90;;;;;;4986025;28;20470;-67
2023/10/19 06:28:13;;;;;;;14.55;5.82;;;16.90;99.90;;;;;;4981201;28;20073;-67
2023/10/19 06:30:42;;;;;;;7.93;4.80;;;17.00;99.90;;;;;;4985265;28;20151;-67
2023/10/19 06:33:08;;;;;;;12.57;5.90;;;17.00;99.90;;;;;;4985123;28;20395;-68
2023/10/19 06:35:36;;;;;;;13.47;6.50;;;17.00;99.90;;;;;;4982180;28;20065;-68
2023/10/19 06:38:03;;;;;;;11.45;6.30;;;17.00;99.90;;;;;;4995509;28;20030;-68
2023/10/19 06:40:30;;;;;;;10.20;7.05;;;17.00;99.90;;;;;;4985181;28;20038;-68
2023/10/19 06:42:57;;;;;;;10.32;6.13;;;16.90;99.90;;;;;;4983705;28;20130;-68
2023/10/19 06:45:25;;;;;;;12.40;6.80;;;16.90;99.90;;;;;;4985000;28;20080;-68
2023/10/19 06:47:51;;;;;;;8.95;6.22;;;16.90;99.90;;;;;;4985607;28;20517;-68
2023/10/19 06:50:20;;;;;;;11.55;6.72;;;16.90;99.90;;;;;;4984954;28;20038;-68
2023/10/19 06:52:47;;;;;;;15.38;7.10;;;16.90;99.90;;;;;;4985858;28;20061;-68
2023/10/19 06:55:13;;;;;;;13.05;7.60;;;16.90;99.90;;;;;;4984881;28;20334;-68
2023/10/19 06:57:43;;;;;;;13.60;6.75;;;16.90;99.90;;;;;;4984836;28;20113;-69
2023/10/19 07:00:21;;;;;;;22.70;8.20;;;16.90;99.90;;;;;;4983286;28;20038;-68
2023/10/19 07:02:50;;;;;;;15.85;8.82;;;16.90;99.90;;;;;;4983749;28;20038;-70
2023/10/19 07:05:23;;;;;;;19.85;8.02;;;16.90;99.90;;;;;;4984826;28;20108;-69
2023/10/19 07:07:56;;;;;;;20.88;9.10;;;16.90;99.90;;;;;;4984963;28;20027;-68
2023/10/19 07:10:23;;;;;;;17.65;8.48;;;16.90;99.90;;;;;;4984120;28;20041;-67
2023/10/19 07:12:51;;;;;;;14.77;8.23;;;16.90;99.90;;;;;;4984078;28;20033;-67
2023/10/19 07:15:18;;;;;;;13.90;8.48;;;16.80;99.90;;;;;;4980722;28;20129;-68
2023/10/19 07:17:49;;;;;;;22.10;8.52;;;16.80;99.90;;;;;;4984436;28;20492;-67
2023/10/19 07:23:26;;;;;;;11.35;6.82;;;16.80;99.90;;;;;;4984804;28;20506;-67
2023/10/19 07:25:59;;;;;;;12.18;6.40;;;16.70;99.90;;;;;;4983432;28;20038;-67
2023/10/19 07:28:26;;;;;;;11.02;5.97;;;16.70;99.90;;;;;;4985466;28;20490;-67
2023/10/19 07:30:52;;;;;;;;;;;16.80;99.90;;;;;;4986406;28;20053;-66
2023/10/19 07:33:19;;;;;;;11.15;6.13;;;16.80;99.90;;;;;;4985460;28;19914;-67
2023/10/19 07:35:46;;;;;;;17.15;5.75;;;16.80;99.90;;;;;;4988964;28;20054;-67
2023/10/19 07:38:16;;;;;;;9.35;5.05;;;16.80;99.90;;;;;;4988257;28;20034;-67
2023/10/19 07:40:43;;;;;;;11.18;5.95;;;16.80;99.90;;;;;;4987689;28;20035;-68
2023/10/19 07:43:09;;;;;;;11.95;5.57;;;16.90;99.90;;;;;;4988445;28;20439;-68
2023/10/19 07:45:36;;;;;;;8.90;6.05;;;16.80;99.90;;;;;;4988759;28;20112;-70
2023/10/19 07:48:10;;;;;;;9.65;5.57;;;16.90;99.90;;;;;;4988300;28;20073;-69
2023/10/19 07:50:39;;;;;;;11.25;5.53;;;16.80;99.90;;;;;;4989243;28;20092;-67
2023/10/19 07:53:04;;;;;;;9.27;5.70;;;16.80;99.90;;;;;;4989380;28;20562;-67
2023/10/19 07:55:31;;;;;;;8.57;6.20;;;16.80;99.90;;;;;;5019777;28;20069;-67
2023/10/19 07:58:00;;;;;;;12.32;6.10;;;16.80;99.90;;;;;;4989233;28;20023;-66
2023/10/19 08:00:26;;;;;;;17.33;5.95;;;16.70;99.90;;;;;;4988187;28;20054;-67
2023/10/19 08:02:53;;;;;;;14.13;5.53;;;16.70;99.90;;;;;;4987614;28;20022;-69
2023/10/19 08:05:19;;;;;;;9.80;5.68;;;16.80;99.90;;;;;;4989354;28;20065;-69
2023/10/19 08:07:48;;;;;;;11.07;6.28;;;17.00;99.90;;;;;;4987281;28;20074;-67
2023/10/19 08:10:21;;;;;;;6.63;5.30;;;17.00;99.90;;;;;;4986696;28;20030;-70
2023/10/19 08:12:48;;;;;;;10.50;5.63;;;17.00;99.90;;;;;;4987242;28;20545;-70
2023/10/19 08:15:16;;;;;;;10.60;6.22;;;17.10;99.90;;;;;;4986544;28;20038;-71
2023/10/19 08:17:43;;;;;;;9.82;6.60;;;17.20;99.90;;;;;;4988521;28;20030;-70
2023/10/19 08:20:24;;;;;;;10.05;7.15;;;17.20;99.90;;;;;;4988134;28;20022;-71
2023/10/19 08:22:53;;;;;;;9.13;6.03;;;17.30;99.90;;;;;;4988747;28;20030;-71
2023/10/19 08:25:20;;;;;;;14.05;6.18;;;17.40;99.90;;;;;;4987254;28;20056;-71
2023/10/19 08:27:51;;;;;;;13.45;6.88;;;17.50;99.90;;;;;;4988393;28;20049;-70
2023/10/19 08:30:23;;;;;;;6.00;5.00;;;17.50;99.90;;;;;;4988648;28;20108;-69
2023/10/19 08:32:51;;;;;;;9.65;5.15;;;17.40;99.90;;;;;;4987216;28;20026;-72
2023/10/19 08:35:20;;;;;;;6.72;5.53;;;17.40;99.90;;;;;;4987317;28;20054;-70
2023/10/19 08:37:48;;;;;;;6.10;5.25;;;17.40;99.90;;;;;;4987597;28;20474;-69
2023/10/19 08:40:17;;;;;;;7.90;5.65;;;17.30;99.90;;;;;;4987701;28;20053;-68
2023/10/19 08:42:45;;;;;;;7.57;5.55;;;17.40;99.90;;;;;;4987551;28;20026;-68
2023/10/19 08:45:16;;;;;;;13.00;4.90;;;17.30;99.90;;;;;;4986392;28;20026;-68
2023/10/19 08:47:49;;;;;;;6.50;5.15;;;17.20;99.90;;;;;;4985334;28;20034;-69
2023/10/19 08:50:14;;;;;;;8.38;5.30;;;17.30;99.90;;;;;;4984856;28;20166;-68
2023/10/19 08:52:42;;;;;;;7.17;4.50;;;17.20;99.90;;;;;;4986181;28;20113;-69
2023/10/19 08:55:09;;;;;;;7.72;4.82;;;17.20;99.90;;;;;;4985578;28;20293;-69
2023/10/19 08:57:37;;;;;;;6.97;4.28;;;17.30;99.90;;;;;;4987678;28;20117;-69
2023/10/19 09:00:06;;;;;;;12.77;6.35;;;17.30;99.90;;;;;;5000477;28;20495;-68
2023/10/19 09:02:33;;;;;;;10.30;4.43;;;17.60;99.90;;;;;;4987760;28;20124;-69
2023/10/19 09:04:59;;;;;;;8.70;5.30;;;17.90;99.90;;;;;;5018821;28;20049;-70
2023/10/19 09:07:30;;;;;;;14.40;5.32;;;18.20;99.90;;;;;;4988441;28;20034;-67
2023/10/19 09:09:57;;;;;;;13.05;4.90;;;18.30;99.90;;;;;;4986171;28;20061;-67
2023/10/19 09:12:23;;;;;;;;;;;18.70;99.90;;;;;;4987284;28;20509;-67
2023/10/19 09:14:49;;;;;;;6.07;3.65;;;18.90;99.90;;;;;;4987453;28;19928;-69
2023/10/19 09:17:17;;;;;;;6.78;4.25;;;18.80;99.90;;;;;;4986663;28;20041;-69
2023/10/19 09:19:47;;;;;;;9.32;4.28;;;18.80;99.90;;;;;;4986492;28;20018;-67
2023/10/19 09:22:18;;;;;;;7.32;4.35;;;19.20;99.90;;;;;;5017668;28;20088;-67
2023/10/19 09:24:45;;;;;;;9.98;4.75;;;19.50;99.90;;;;;;4986338;28;20049;-68
2023/10/19 09:27:12;;;;;;;5.55;4.35;;;19.20;99.90;;;;;;4982711;28;20131;-68
2023/10/19 09:29:40;;;;;;;5.70;4.30;;;19.50;99.90;;;;;;4986889;28;20030;-68
2023/10/19 09:32:07;;;;;;;5.20;3.22;;;20.10;99.90;;;;;;4985891;28;20026;-69
2023/10/19 09:34:35;;;;;;;4.60;3.55;;;20.30;99.90;;;;;;4977224;28;20589;-71
2023/10/19 09:37:02;;;;;;;5.15;4.38;;;20.20;99.90;;;;;;4986734;28;20089;-67
2023/10/19 09:39:35;;;;;;;6.70;4.55;;;20.00;99.90;;;;;;4983985;28;20383;-68
2023/10/19 09:42:16;;;;;;;7.43;4.53;;;19.40;99.90;;;;;;4985673;28;20524;-70
2023/10/19 09:44:47;;;;;;;4.35;3.67;;;19.30;99.90;;;;;;4985919;28;20040;-69
2023/10/19 09:47:20;;;;;;;6.63;4.40;;;19.70;99.90;;;;;;4985630;28;20034;-68
2023/10/19 09:49:45;;;;;;;7.07;3.63;;;19.70;99.90;;;;;;4985740;28;20122;-68
2023/10/19 09:52:13;;;;;;;4.72;3.97;;;19.60;99.90;;;;;;4986461;28;20113;-67
2023/10/19 09:54:58;;;;;;;5.28;3.70;;;19.60;99.90;;;;;;4986281;28;20034;-69
2023/10/19 09:57:37;;;;;;;4.72;4.00;;;19.60;99.90;;;;;;4985216;28;20415;-69
2023/10/19 10:00:14;;;;;;;8.40;5.82;;;19.20;99.90;;;;;;4987814;28;20109;-71
2023/10/19 10:02:42;;;;;;;14.82;10.63;;;19.10;99.90;;;;;;4985795;28;20110;-69
2023/10/19 10:05:42;;;;;;;11.65;9.85;;;19.10;99.90;;;;;;4986510;28;20041;-68
2023/10/19 10:08:22;;;;;;;11.05;7.15;;;19.20;99.90;;;;;;4985046;28;20108;-70
2023/10/19 10:10:50;;;;;;;6.30;5.20;;;19.40;99.90;;;;;;5017298;28;20798;-70
2023/10/19 10:13:24;;;;;;;7.72;4.18;;;19.60;99.90;;;;;;4984503;28;20421;-70
2023/10/19 10:15:54;;;;;;;7.38;4.80;;;19.80;99.90;;;;;;4985723;28;20038;-68
2023/10/19 10:18:20;;;;;;;8.80;4.20;;;19.90;99.90;;;;;;4985495;28;20049;-69
2023/10/19 10:20:47;;;;;;;5.32;3.58;;;20.00;99.90;;;;;;4985791;28;20038;-69
2023/10/19 10:23:31;;;;;;;6.45;4.30;;;19.90;99.90;;;;;;4982423;28;20042;-69
2023/10/19 10:25:58;;;;;;;5.32;4.20;;;19.70;99.90;;;;;;4984377;28;20112;-69
2023/10/19 10:28:24;;;;;;;6.00;4.63;;;19.70;99.90;;;;;;4986004;28;20085;-68
2023/10/19 10:31:22;;;;;;;8.43;4.65;;;19.60;99.90;;;;;;4985698;28;20034;-68
2023/10/19 10:33:57;;;;;;;9.35;4.13;;;19.70;99.90;;;;;;4984483;28;20034;-68
2023/10/19 10:36:23;;;;;;;6.43;4.75;;;19.70;99.90;;;;;;4983586;28;20562;-67
2023/10/19 10:38:50;;;;;;;7.82;4.60;;;19.80;99.90;;;;;;4984343;28;20290;-67
2023/10/19 10:41:27;;;;;;;6.10;4.60;;;19.80;99.90;;;;;;4980715;28;20050;-69
2023/10/19 10:43:55;;;;;;;4.72;3.80;;;19.80;99.90;;;;;;4985940;28;20365;-69
2023/10/19 10:46:25;;;;;;;5.63;3.90;;;20.00;99.90;;;;;;4985100;28;20039;-69
2023/10/19 10:48:51;;;;;;;8.55;4.60;;;20.10;99.90;;;;;;4986080;28;20034;-69
2023/10/19 10:51:18;;;;;;;5.90;3.97;;;20.00;99.90;;;;;;4983123;28;20054;-70
2023/10/19 10:53:47;;;;;;;6.70;3.80;;;20.10;99.90;;;;;;4984095;28;20406;-70
2023/10/19 10:56:13;;;;;;;7.10;4.18;;;19.90;99.90;;;;;;4984458;28;20088;-68
2023/10/19 10:58:38;;;;;;;8.97;4.63;;;19.90;99.90;;;;;;4985184;28;20038;-68
2023/10/19 11:01:05;;;;;;;9.30;4.03;;;19.90;99.90;;;;;;4984568;28;20314;-68
2023/10/19 11:03:31;;;;;;;5.47;3.88;;;20.00;99.90;;;;;;4985677;28;20285;-67
2023/10/19 11:06:10;;;;;;;7.28;4.38;;;19.90;99.90;;;;;;4986368;28;20033;-67
2023/10/19 11:08:36;;;;;;;6.78;3.33;;;19.90;99.90;;;;;;4986078;28;20046;-69
2023/10/19 11:11:12;;;;;;;9.20;3.63;;;20.00;99.90;;;;;;4986750;28;20026;-67
2023/10/19 11:13:39;;;;;;;7.20;2.83;;;20.00;99.90;;;;;;4988731;28;20042;-68
2023/10/19 11:16:07;;;;;;;5.15;2.75;;;20.10;99.90;;;;;;4989993;28;20105;-68
2023/10/19 11:18:42;;;;;;;6.60;3.10;;;20.00;99.90;;;;;;4988616;28;20033;-68
2023/10/19 11:21:14;;;;;;;12.68;3.05;;;20.00;99.90;;;;;;4988799;28;20471;-67
2023/10/19 11:23:45;;;;;;;5.45;2.83;;;20.00;99.90;;;;;;4989208;28;20030;-68
2023/10/19 11:26:12;;;;;;;8.82;3.60;;;20.00;99.90;;;;;;4988494;28;20042;-67
2023/10/19 11:28:43;;;;;;;4.03;3.00;;;20.10;99.90;;;;;;4989047;28;20124;-68
2023/10/19 11:31:13;;;;;;;6.43;2.75;;;20.10;99.90;;;;;;4987844;28;20040;-67
2023/10/19 11:33:41;;;;;;;4.40;2.50;;;20.10;99.90;;;;;;4989455;28;20034;-69
2023/10/19 11:36:07;;;;;;;4.18;2.17;;;20.20;99.90;;;;;;4987405;28;20038;-69
2023/10/19 11:38:32;;;;;;;6.22;3.20;;;20.20;99.90;;;;;;4985808;28;20787;-67
2023/10/19 11:40:58;;;;;;;3.60;2.23;;;20.20;99.90;;;;;;4989291;28;20495;-69
2023/10/19 11:43:24;;;;;;;5.55;2.33;;;20.20;99.90;;;;;;4987850;28;20292;-69
2023/10/19 11:45:50;;;;;;;5.93;2.53;;;20.20;99.90;;;;;;4988097;28;20038;-69
2023/10/19 11:48:15;;;;;;;3.95;2.17;;;20.20;99.90;;;;;;4988184;28;20952;-69
2023/10/19 11:50:41;;;;;;;4.93;2.10;;;20.30;99.90;;;;;;4988000;28;20038;-69
2023/10/19 11:53:09;;;;;;;6.47;2.22;;;20.30;99.90;;;;;;4987106;28;20173;-69
2023/10/19 11:55:35;;;;;;;5.55;1.95;;;20.30;99.90;;;;;;4980911;28;20132;-69
2023/10/19 11:58:01;;;;;;;8.25;2.65;;;20.40;99.90;;;;;;4987201;28;20062;-69
2023/10/19 12:00:33;;;;;;;3.20;1.97;;;20.40;99.90;;;;;;4988745;28;20030;-69
2023/10/19 12:03:00;;;;;;;4.07;2.50;;;20.40;99.90;;;;;;4988921;28;20165;-69
2023/10/19 12:05:25;;;;;;;5.47;1.92;;;20.40;99.90;;;;;;4988181;28;20473;-69
2023/10/19 12:07:52;;;;;;;4.43;2.37;;;20.40;99.90;;;;;;4990221;28;20018;-69
2023/10/19 12:10:20;;;;;;;4.20;2.05;;;20.50;99.90;;;;;;4988355;28;20785;-70
2023/10/19 12:12:46;;;;;;;2.90;2.25;;;20.40;99.90;;;;;;4985276;28;20119;-69
2023/10/19 12:15:12;;;;;;;6.25;2.20;;;20.50;99.90;;;;;;4987291;28;20502;-69
2023/10/19 12:17:38;;;;;;;5.40;2.70;;;20.60;99.90;;;;;;4988188;28;20048;-69
2023/10/19 12:20:06;;;;;;;11.00;2.20;;;20.60;99.90;;;;;;4989214;28;20022;-69
2023/10/19 12:22:37;;;;;;;5.25;2.20;;;20.60;99.90;;;;;;5021305;28;20039;-70
2023/10/19 12:25:04;;;;;;;3.58;2.00;;;20.60;99.90;;;;;;4988901;28;20026;-69
2023/10/19 12:27:30;;;;;;;6.25;2.42;;;20.60;99.90;;;;;;4988263;28;20041;-69
2023/10/19 12:29:56;;;;;;;7.07;1.83;;;20.60;99.90;;;;;;4988612;28;20030;-69
2023/10/19 12:32:24;;;;;;;4.23;2.03;;;20.50;99.90;;;;;;4988567;28;20293;-69
2023/10/19 12:34:53;;;;;;;7.63;2.33;;;20.40;99.90;;;;;;4988591;28;20038;-69
2023/10/19 12:37:19;;;;;;;6.65;2.60;;;20.40;99.90;;;;;;4988148;28;20026;-69
2023/10/19 12:39:48;;;;;;;6.15;1.90;;;20.30;99.90;;;;;;4988128;28;20065;-69
2023/10/19 12:42:14;;;;;;;4.80;1.98;;;20.20;99.90;;;;;;4986101;28;20045;-69
2023/10/19 12:44:43;;;;;;;6.30;2.35;;;20.20;99.90;;;;;;4988504;28;20399;-69
2023/10/19 12:47:14;;;;;;;8.68;2.53;;;20.10;99.90;;;;;;4987353;28;20026;-69
2023/10/19 12:49:40;;;;;;;8.35;2.17;;;20.20;99.90;;;;;;5018726;28;20053;-69
2023/10/19 12:52:07;;;;;;;9.55;2.20;;;20.10;99.90;;;;;;4987602;28;20030;-69
2023/10/19 12:54:37;;;;;;;3.38;1.77;;;20.20;99.90;;;;;;4987701;28;20108;-69
2023/10/19 12:57:12;;;;;;;9.23;1.83;;;20.20;99.90;;;;;;4986004;28;20056;-69
2023/10/19 12:59:38;;;;;;;4.72;2.03;;;20.20;99.90;;;;;;5019493;28;20073;-69
2023/10/19 13:02:04;;;;;;;6.33;1.80;;;20.30;99.90;;;;;;4987403;28;20065;-69
2023/10/19 13:04:32;;;;;;;5.13;2.10;;;20.30;99.90;;;;;;4987287;28;20026;-69
2023/10/19 13:06:57;;;;;;;5.28;2.35;;;20.30;99.90;;;;;;4987699;28;20042;-69